TimeMDT,TemperatureF,Dew PointF,Humidity,Sea Level PressureIn,VisibilityMPH,Wind Direction,Wind SpeedMPH,Gust SpeedMPH,PrecipitationIn,Events,Conditions,WindDirDegrees,DateUTC
12:51 AM,36.0,28.9,76,29.94,10.0,South,5.8,-,N/A,,Clear,180,2013-10-20 06:51:00
1:51 AM,42.1,30.0,62,29.91,10.0,Calm,Calm,-,N/A,,Clear,0,2013-10-20 07:51:00
2:51 AM,39.0,28.9,67,29.90,10.0,SW,4.6,-,N/A,,Clear,220,2013-10-20 08:51:00
3:51 AM,37.0,28.0,70,29.88,10.0,Calm,Calm,-,N/A,,Clear,0,2013-10-20 09:51:00
4:51 AM,37.9,28.9,70,29.88,10.0,Calm,Calm,-,N/A,,Clear,0,2013-10-20 10:51:00
5:51 AM,37.0,30.9,79,29.89,10.0,Calm,Calm,-,N/A,,Clear,0,2013-10-20 11:51:00
6:51 AM,36.0,28.9,76,29.91,10.0,North,3.5,-,N/A,,Clear,10,2013-10-20 12:51:00
7:51 AM,39.9,32.0,73,29.92,10.0,NNW,3.5,-,N/A,,Clear,340,2013-10-20 13:51:00
8:51 AM,45.0,34.0,65,29.92,10.0,West,3.5,-,N/A,,Clear,280,2013-10-20 14:51:00
9:51 AM,55.9,28.9,36,29.88,10.0,Calm,Calm,-,N/A,,Clear,0,2013-10-20 15:51:00
10:51 AM,61.0,33.1,35,29.86,10.0,SSE,6.9,-,N/A,,Clear,150,2013-10-20 16:51:00
11:51 AM,66.9,33.1,28,29.83,10.0,SE,6.9,-,N/A,,Clear,140,2013-10-20 17:51:00
12:51 PM,72.0,33.1,24,29.80,10.0,ESE,9.2,-,N/A,,Clear,120,2013-10-20 18:51:00
1:51 PM,75.9,30.9,19,29.75,10.0,ESE,6.9,-,N/A,,Clear,120,2013-10-20 19:51:00
2:51 PM,78.1,27.0,15,29.72,10.0,ESE,9.2,-,N/A,,Clear,120,2013-10-20 20:51:00
3:51 PM,79.0,24.1,13,29.70,10.0,Variable,5.8,-,N/A,,Clear,0,2013-10-20 21:51:00
4:51 PM,79.0,23.0,13,29.70,10.0,Calm,Calm,-,N/A,,Clear,0,2013-10-20 22:51:00
5:51 PM,75.9,26.1,16,29.72,10.0,Calm,Calm,-,N/A,,Clear,0,2013-10-20 23:51:00
6:51 PM,69.1,18.0,14,29.75,10.0,WNW,6.9,-,N/A,,Clear,290,2013-10-21 00:51:00
7:51 PM,63.0,19.9,19,29.77,10.0,WNW,6.9,-,N/A,,Clear,290,2013-10-21 01:51:00
8:51 PM,57.9,19.0,22,29.79,10.0,West,11.5,-,N/A,,Clear,260,2013-10-21 02:51:00
9:51 PM,57.9,19.0,22,29.78,10.0,West,12.7,-,N/A,,Clear,270,2013-10-21 03:51:00
10:51 PM,55.0,21.0,27,29.79,10.0,West,11.5,-,N/A,,Clear,270,2013-10-21 04:51:00
11:51 PM,57.0,21.0,25,29.82,10.0,North,13.8,-,N/A,,Clear,350,2013-10-21 05:51:00